Time;durP1;ratioP1;P1;durP2;ratioP2;P2;SDS_P1;SDS_P2;PMS_P1;PMS_P2;Temp;Humidity;BMP_temperature;BMP_pressure;BME280_temperature;BME280_humidity;BME280_pressure;Samples;Min_cycle;Max_cycle;Signal;HPM_P1;HPM_P2
2023/08/03 00:01:55;;;;;;;0.70;0.60;;;21.40;67.20;;;;;;4877412;29;20112;-79
2023/08/03 00:04:21;;;;;;;0.50;0.50;;;21.40;67.20;;;;;;4891688;29;20036;-78
2023/08/03 00:06:46;;;;;;;0.90;0.60;;;21.40;67.20;;;;;;4893646;29;20056;-79
2023/08/03 00:09:12;;;;;;;0.65;0.60;;;21.40;67.20;;;;;;4892044;29;20553;-79
2023/08/03 00:11:38;;;;;;;0.60;0.60;;;21.30;67.20;;;;;;4878030;29;20036;-78
2023/08/03 00:14:04;;;;;;;0.68;0.68;;;21.30;67.20;;;;;;4893037;29;20073;-79
2023/08/03 00:16:29;;;;;;;2.13;0.90;;;21.30;67.20;;;;;;4893424;29;20166;-78
2023/08/03 00:18:55;;;;;;;0.60;0.60;;;21.30;67.20;;;;;;4877493;29;20482;-79
2023/08/03 00:21:21;;;;;;;1.52;0.50;;;21.30;67.30;;;;;;4880867;29;20043;-79
2023/08/03 00:23:46;;;;;;;1.15;0.70;;;21.30;67.30;;;;;;4892836;29;20036;-78
2023/08/03 00:26:12;;;;;;;0.57;0.57;;;21.30;67.30;;;;;;4892737;29;20482;-78
2023/08/03 00:28:38;;;;;;;1.10;0.73;;;21.20;67.40;;;;;;4910579;29;20033;-79
2023/08/03 00:31:04;;;;;;;0.98;0.60;;;21.20;67.40;;;;;;4881413;29;20040;-79
2023/08/03 00:33:29;;;;;;;1.40;0.60;;;21.20;67.50;;;;;;4880877;29;20025;-79
2023/08/03 00:35:56;;;;;;;0.60;0.60;;;21.20;67.50;;;;;;4897222;29;20037;-78
2023/08/03 00:38:22;;;;;;;0.60;0.60;;;21.20;67.50;;;;;;4907741;29;20051;-77
2023/08/03 00:40:50;;;;;;;0.60;0.60;;;21.20;67.50;;;;;;4894541;29;20033;-77
2023/08/03 00:43:16;;;;;;;0.65;0.57;;;21.20;68.20;;;;;;4895028;29;20048;-76
2023/08/03 00:45:42;;;;;;;0.82;0.80;;;21.10;68.10;;;;;;4892812;29;20804;-77
2023/08/03 00:48:08;;;;;;;0.60;0.60;;;21.10;67.60;;;;;;4893095;29;20037;-77
2023/08/03 00:50:34;;;;;;;0.70;0.70;;;21.10;67.60;;;;;;4892719;29;20044;-77
2023/08/03 00:53:00;;;;;;;0.93;0.70;;;21.10;68.20;;;;;;4893753;29;20033;-79
2023/08/03 00:55:26;;;;;;;0.82;0.60;;;21.10;67.70;;;;;;4892871;29;20115;-77
2023/08/03 00:57:51;;;;;;;1.15;0.70;;;21.00;67.80;;;;;;4892008;29;20040;-78
2023/08/03 01:00:17;;;;;;;0.70;0.70;;;21.00;67.80;;;;;;4877497;29;20041;-77
2023/08/03 01:02:43;;;;;;;1.00;0.70;;;21.00;67.80;;;;;;4889275;29;20039;-77
2023/08/03 01:05:09;;;;;;;1.95;0.90;;;21.00;67.90;;;;;;4874863;29;20403;-77
2023/08/03 01:07:34;;;;;;;0.50;0.50;;;21.00;67.90;;;;;;4892057;29;20479;-77
2023/08/03 01:10:01;;;;;;;1.27;0.70;;;21.00;67.90;;;;;;4891195;29;20032;-77
2023/08/03 01:12:27;;;;;;;0.55;0.55;;;21.00;67.90;;;;;;4890071;29;20061;-76
2023/08/03 01:14:53;;;;;;;0.80;0.80;;;21.00;67.90;;;;;;4878093;29;20040;-77
2023/08/03 01:17:20;;;;;;;0.60;0.60;;;20.90;67.90;;;;;;4876106;29;20057;-77
2023/08/03 01:19:46;;;;;;;0.68;0.60;;;21.00;67.90;;;;;;4891978;29;20127;-76
2023/08/03 01:22:13;;;;;;;0.60;0.60;;;20.90;67.90;;;;;;4893124;29;20032;-78
2023/08/03 01:24:39;;;;;;;1.35;0.80;;;20.90;67.90;;;;;;4861993;29;20033;-77
2023/08/03 01:27:06;;;;;;;0.65;0.65;;;20.90;67.90;;;;;;4875377;29;20389;-76
2023/08/03 01:29:32;;;;;;;0.70;0.70;;;20.90;67.90;;;;;;4874360;29;20029;-77
2023/08/03 01:31:59;;;;;;;1.45;0.80;;;20.80;67.90;;;;;;4892243;29;20127;-77
2023/08/03 01:34:27;;;;;;;0.98;0.77;;;20.80;67.90;;;;;;4892466;29;21449;-77
2023/08/03 01:36:54;;;;;;;1.15;0.90;;;20.80;68.00;;;;;;4905401;29;20047;-77
2023/08/03 01:39:23;;;;;;;1.23;0.82;;;20.80;68.00;;;;;;4891381;29;20041;-77
2023/08/03 01:41:48;;;;;;;2.17;1.13;;;20.80;68.00;;;;;;4891857;29;20033;-78
2023/08/03 01:44:28;;;;;;;2.33;0.77;;;20.80;68.00;;;;;;4892051;29;20036;-78
2023/08/03 01:46:56;;;;;;;0.88;0.63;;;20.90;68.20;;;;;;4907776;29;20040;-78
2023/08/03 01:49:23;;;;;;;1.02;0.77;;;20.80;68.00;;;;;;4892006;29;20029;-77
2023/08/03 01:51:50;;;;;;;0.98;0.60;;;20.80;68.10;;;;;;4890792;29;20095;-78
2023/08/03 01:54:16;;;;;;;1.10;0.50;;;20.70;68.00;;;;;;4859941;29;20605;-78
2023/08/03 01:56:42;;;;;;;0.70;0.70;;;20.80;68.10;;;;;;4891714;29;20028;-77
2023/08/03 01:59:08;;;;;;;1.25;0.90;;;20.70;68.10;;;;;;4890392;29;20494;-78
2023/08/03 02:01:33;;;;;;;1.45;0.70;;;20.80;68.20;;;;;;4875172;29;20037;-77
2023/08/03 02:03:59;;;;;;;1.75;0.70;;;20.70;68.10;;;;;;4891217;29;20036;-77
2023/08/03 02:06:25;;;;;;;1.23;0.80;;;20.70;68.20;;;;;;4873666;29;20116;-78
2023/08/03 02:08:51;;;;;;;1.00;0.80;;;20.60;68.10;;;;;;4876986;29;20060;-78
2023/08/03 02:11:17;;;;;;;0.85;0.70;;;20.70;68.30;;;;;;4876231;29;20062;-77
2023/08/03 02:13:43;;;;;;;0.70;0.70;;;20.60;68.20;;;;;;4891457;29;20055;-78
2023/08/03 02:16:10;;;;;;;1.20;0.80;;;20.60;68.30;;;;;;4876038;29;20060;-78
2023/08/03 02:18:38;;;;;;;0.98;0.90;;;20.60;68.30;;;;;;4889471;29;20397;-77
2023/08/03 02:21:05;;;;;;;1.05;0.82;;;20.60;68.30;;;;;;4906586;29;20029;-78
2023/08/03 02:23:31;;;;;;;0.95;0.80;;;20.60;68.30;;;;;;4892225;29;20032;-77
2023/08/03 02:25:57;;;;;;;1.10;0.80;;;20.60;68.30;;;;;;4889622;29;20511;-77
2023/08/03 02:28:22;;;;;;;0.60;0.60;;;20.60;68.30;;;;;;4893854;29;20155;-77
2023/08/03 02:30:48;;;;;;;0.75;0.75;;;20.60;68.40;;;;;;4895326;29;20040;-78
2023/08/03 02:33:15;;;;;;;1.00;0.90;;;20.60;68.40;;;;;;4910315;29;20150;-77
2023/08/03 02:35:41;;;;;;;0.93;0.80;;;20.60;68.40;;;;;;4903483;29;20124;-78
2023/08/03 02:38:07;;;;;;;1.17;0.77;;;20.60;68.50;;;;;;4890121;29;20140;-77
2023/08/03 02:40:33;;;;;;;1.70;0.80;;;20.50;68.40;;;;;;4889412;29;20041;-77
2023/08/03 02:43:00;;;;;;;2.10;1.00;;;20.60;68.50;;;;;;4875050;29;20043;-77
2023/08/03 02:45:28;;;;;;;1.33;0.95;;;20.50;68.40;;;;;;4891544;29;20055;-77
2023/08/03 02:47:55;;;;;;;0.90;0.90;;;20.50;68.40;;;;;;4892452;29;20084;-77
2023/08/03 02:50:22;;;;;;;0.77;0.75;;;20.50;68.50;;;;;;4889965;29;20041;-77
2023/08/03 02:52:52;;;;;;;1.25;1.00;;;20.50;68.50;;;;;;4876146;29;20041;-77
2023/08/03 02:55:18;;;;;;;0.90;0.73;;;20.50;68.50;;;;;;4889968;29;20039;-77
2023/08/03 02:57:46;;;;;;;1.92;1.00;;;20.50;68.50;;;;;;4872783;29;20036;-78
2023/08/03 03:00:13;;;;;;;1.30;0.90;;;20.50;68.50;;;;;;4857699;29;20056;-78
2023/08/03 03:02:40;;;;;;;1.23;0.90;;;20.50;68.50;;;;;;4874922;29;20115;-78
2023/08/03 03:05:07;;;;;;;0.95;0.90;;;20.50;68.50;;;;;;4875349;29;20486;-77
2023/08/03 03:07:36;;;;;;;1.30;0.98;;;20.50;68.60;;;;;;4905133;29;20031;-77
2023/08/03 03:10:04;;;;;;;0.93;0.80;;;20.40;68.50;;;;;;4842836;29;20119;-77
2023/08/03 03:12:30;;;;;;;2.05;0.93;;;20.50;68.60;;;;;;4889967;29;20033;-78
2023/08/03 03:14:56;;;;;;;1.50;0.90;;;20.50;68.60;;;;;;4873787;29;20482;-78
2023/08/03 03:17:22;;;;;;;1.90;1.17;;;20.40;68.60;;;;;;4889619;29;20503;-77
2023/08/03 03:19:49;;;;;;;0.82;0.80;;;20.40;68.60;;;;;;4890962;29;20044;-77
2023/08/03 03:22:15;;;;;;;0.90;0.80;;;20.40;68.60;;;;;;4877675;29;20063;-78
2023/08/03 03:24:41;;;;;;;1.75;1.17;;;20.40;68.60;;;;;;4890614;29;20056;-78
2023/08/03 03:27:06;;;;;;;1.50;0.90;;;20.40;68.70;;;;;;4906587;29;20666;-78
2023/08/03 03:29:39;;;;;;;1.13;0.88;;;20.40;68.60;;;;;;4890125;29;20431;-78
2023/08/03 03:32:06;;;;;;;0.95;0.95;;;20.40;68.60;;;;;;4861295;29;20561;-78
2023/08/03 03:34:33;;;;;;;1.98;1.10;;;20.40;68.70;;;;;;4893034;29;20043;-78
2023/08/03 03:36:59;;;;;;;2.15;1.20;;;20.40;68.70;;;;;;4878262;29;20123;-78
2023/08/03 03:39:24;;;;;;;0.82;0.82;;;20.40;69.30;;;;;;4908371;29;20036;-78
2023/08/03 03:41:51;;;;;;;1.27;0.95;;;20.40;68.70;;;;;;4894226;29;20046;-77
2023/08/03 03:44:18;;;;;;;1.10;0.90;;;20.40;68.70;;;;;;4847852;29;20028;-78
2023/08/03 03:46:44;;;;;;;0.98;0.82;;;20.40;68.70;;;;;;4878241;29;20109;-78
2023/08/03 03:49:10;;;;;;;1.63;1.00;;;20.40;68.80;;;;;;4878307;29;20059;-78
2023/08/03 03:51:36;;;;;;;1.90;1.00;;;20.40;68.80;;;;;;4893848;29;20041;-78
2023/08/03 03:54:03;;;;;;;1.40;0.90;;;20.30;68.70;;;;;;4893724;29;20033;-78
2023/08/03 03:56:31;;;;;;;2.08;1.05;;;20.30;68.20;;;;;;4893436;29;20136;-78
2023/08/03 03:58:56;;;;;;;0.82;0.80;;;20.30;68.80;;;;;;4891559;29;20131;-78
2023/08/03 04:01:22;;;;;;;1.50;0.93;;;20.30;68.80;;;;;;4875867;29;20481;-78
2023/08/03 04:03:51;;;;;;;1.08;0.90;;;20.30;68.80;;;;;;4891444;29;20037;-78
2023/08/03 04:06:16;;;;;;;0.82;0.80;;;20.30;68.90;;;;;;4877792;29;20404;-78
2023/08/03 04:08:42;;;;;;;0.80;0.80;;;20.30;68.80;;;;;;4893215;29;20051;-78
2023/08/03 04:11:08;;;;;;;1.02;0.93;;;20.30;68.80;;;;;;4906921;29;20033;-78
2023/08/03 04:13:34;;;;;;;0.82;0.80;;;20.30;68.90;;;;;;4893868;29;20060;-78
2023/08/03 04:16:00;;;;;;;1.38;0.95;;;20.30;68.90;;;;;;4891097;29;20068;-78
2023/08/03 04:18:27;;;;;;;0.90;0.90;;;20.30;68.90;;;;;;4892723;29;20052;-78
2023/08/03 04:20:54;;;;;;;0.75;0.70;;;20.30;68.90;;;;;;4879346;29;20029;-77
2023/08/03 04:23:20;;;;;;;0.90;0.82;;;20.30;69.00;;;;;;4908204;29;20037;-78
2023/08/03 04:25:46;;;;;;;0.77;0.77;;;20.30;69.00;;;;;;4879518;29;20398;-77
2023/08/03 04:28:16;;;;;;;0.90;0.80;;;20.30;69.00;;;;;;4898739;29;20095;-77
2023/08/03 04:30:41;;;;;;;0.95;0.80;;;20.20;69.70;;;;;;4910671;29;20037;-78
2023/08/03 04:33:07;;;;;;;1.27;1.00;;;20.30;69.00;;;;;;4873823;29;20084;-78
2023/08/03 04:35:36;;;;;;;0.73;0.73;;;20.20;69.00;;;;;;4881617;29;20457;-78
2023/08/03 04:38:09;;;;;;;1.08;0.95;;;20.20;69.00;;;;;;4895244;29;20124;-77
2023/08/03 04:40:38;;;;;;;1.38;0.88;;;20.20;69.00;;;;;;4893250;29;20750;-77
2023/08/03 04:43:05;;;;;;;1.63;1.20;;;20.20;69.10;;;;;;4874473;29;20126;-77
2023/08/03 04:45:30;;;;;;;1.25;0.90;;;20.20;69.10;;;;;;4877232;29;20029;-78
2023/08/03 04:47:57;;;;;;;1.42;0.93;;;20.20;69.10;;;;;;4892847;29;20330;-79
2023/08/03 04:50:23;;;;;;;1.77;1.10;;;20.20;69.10;;;;;;4859891;29;20119;-78
2023/08/03 04:52:50;;;;;;;1.20;0.90;;;20.20;69.10;;;;;;4891372;29;20119;-78
2023/08/03 04:55:19;;;;;;;0.82;0.73;;;20.20;69.20;;;;;;4866923;29;20040;-79
2023/08/03 04:57:44;;;;;;;1.05;0.95;;;20.20;69.20;;;;;;4880286;29;20375;-77
2023/08/03 05:00:12;;;;;;;0.85;0.85;;;20.10;69.20;;;;;;4892174;29;20036;-77
2023/08/03 05:02:37;;;;;;;0.88;0.88;;;20.20;69.20;;;;;;4892734;29;20135;-77
2023/08/03 05:05:03;;;;;;;1.38;1.02;;;20.20;69.20;;;;;;4876123;29;20538;-76
2023/08/03 05:07:29;;;;;;;1.95;0.90;;;20.20;69.20;;;;;;4892209;29;20032;-76
2023/08/03 05:09:55;;;;;;;1.60;0.98;;;20.20;69.30;;;;;;4893718;29;20509;-77
2023/08/03 05:12:21;;;;;;;0.93;0.85;;;20.20;69.20;;;;;;4899295;29;20040;-77
2023/08/03 05:14:47;;;;;;;2.13;0.95;;;20.20;69.30;;;;;;4901361;29;20549;-75
2023/08/03 05:17:13;;;;;;;1.63;1.05;;;20.10;69.20;;;;;;4907393;29;20128;-76
2023/08/03 05:19:38;;;;;;;0.95;0.85;;;20.10;69.20;;;;;;4863555;29;20100;-77
2023/08/03 05:22:04;;;;;;;1.02;0.93;;;20.10;69.30;;;;;;4891564;29;20037;-80
2023/08/03 05:24:30;;;;;;;2.30;1.42;;;20.20;69.30;;;;;;4890754;29;20530;-78
2023/08/03 05:26:56;;;;;;;0.93;0.80;;;20.10;69.30;;;;;;4907865;29;20033;-77
2023/08/03 05:29:22;;;;;;;1.27;1.00;;;20.10;69.20;;;;;;4860366;29;20406;-77
2023/08/03 05:31:48;;;;;;;1.35;0.95;;;20.10;69.20;;;;;;4892061;29;20087;-77
2023/08/03 05:34:15;;;;;;;1.08;0.80;;;20.10;69.30;;;;;;4877334;29;20470;-77
2023/08/03 05:36:40;;;;;;;0.98;0.73;;;20.10;69.30;;;;;;4890504;29;20064;-78
2023/08/03 05:39:08;;;;;;;0.98;0.98;;;20.10;69.30;;;;;;4895545;29;20048;-78
2023/08/03 05:41:34;;;;;;;1.48;0.88;;;20.10;69.30;;;;;;4894212;29;20088;-76
2023/08/03 05:44:00;;;;;;;1.17;0.75;;;20.10;70.00;;;;;;4896605;29;20441;-77
2023/08/03 05:46:31;;;;;;;2.42;0.93;;;20.10;69.40;;;;;;4896089;29;20025;-78
2023/08/03 05:48:57;;;;;;;1.75;0.90;;;20.10;69.40;;;;;;4894169;29;20039;-77
2023/08/03 05:51:28;;;;;;;0.73;0.73;;;20.10;69.40;;;;;;4877218;29;20025;-77
2023/08/03 05:53:56;;;;;;;1.80;1.00;;;20.10;69.40;;;;;;4892266;29;20047;-77
2023/08/03 05:56:23;;;;;;;1.50;0.90;;;20.10;69.50;;;;;;4888680;29;20035;-77
2023/08/03 05:58:50;;;;;;;1.73;0.98;;;20.10;69.40;;;;;;4890742;29;20044;-77
2023/08/03 06:01:20;;;;;;;1.23;0.80;;;20.10;69.50;;;;;;4895937;29;20029;-77
2023/08/03 06:03:47;;;;;;;1.58;0.88;;;20.00;69.40;;;;;;4880264;29;20377;-77
2023/08/03 06:06:18;;;;;;;1.15;0.88;;;20.10;69.50;;;;;;4895160;29;20036;-76
2023/08/03 06:08:56;;;;;;;1.33;0.90;;;20.10;69.50;;;;;;4895784;29;20032;-77
2023/08/03 06:11:22;;;;;;;1.63;0.95;;;20.10;69.50;;;;;;4909758;29;20020;-77
2023/08/03 06:13:51;;;;;;;0.88;0.80;;;20.10;69.50;;;;;;4891271;29;20505;-78
2023/08/03 06:16:16;;;;;;;2.15;1.08;;;20.00;69.50;;;;;;4894052;29;20482;-78
2023/08/03 06:18:52;;;;;;;0.75;0.75;;;20.00;69.40;;;;;;4895186;29;20045;-77
2023/08/03 06:21:18;;;;;;;2.20;0.90;;;20.10;69.60;;;;;;4897107;29;20045;-78
2023/08/03 06:23:46;;;;;;;1.83;1.00;;;20.10;69.50;;;;;;4911073;29;20055;-78
2023/08/03 06:26:14;;;;;;;1.50;0.80;;;20.00;69.50;;;;;;4889637;29;20036;-78
2023/08/03 06:28:40;;;;;;;1.15;0.90;;;20.00;69.50;;;;;;4906964;29;20048;-77
2023/08/03 06:31:17;;;;;;;1.00;0.90;;;20.00;69.50;;;;;;4876332;29;20041;-77
2023/08/03 06:33:44;;;;;;;0.93;0.70;;;20.00;69.70;;;;;;4894874;29;20492;-77
2023/08/03 06:36:25;;;;;;;1.00;0.85;;;20.00;69.60;;;;;;4910236;29;20020;-78
2023/08/03 06:38:51;;;;;;;0.80;0.80;;;20.00;69.60;;;;;;4894288;29;20037;-78
2023/08/03 06:41:17;;;;;;;0.85;0.80;;;20.00;69.50;;;;;;4894527;29;20027;-76
2023/08/03 06:43:44;;;;;;;1.73;0.90;;;20.00;69.50;;;;;;4895481;29;20036;-79
2023/08/03 06:46:10;;;;;;;1.02;0.90;;;20.00;69.60;;;;;;4896503;29;20457;-77
2023/08/03 06:48:36;;;;;;;1.98;1.10;;;20.00;69.60;;;;;;4894754;29;20119;-77
2023/08/03 06:51:03;;;;;;;1.63;0.88;;;20.00;69.60;;;;;;4879139;29;20044;-77
2023/08/03 06:53:32;;;;;;;0.85;0.70;;;20.00;69.60;;;;;;4876287;29;20064;-77
2023/08/03 06:55:58;;;;;;;0.82;0.65;;;20.00;69.70;;;;;;4893836;29;20045;-78
2023/08/03 06:58:24;;;;;;;1.75;0.98;;;20.00;69.70;;;;;;4879793;29;20139;-77
2023/08/03 07:00:50;;;;;;;1.42;0.88;;;20.00;69.70;;;;;;4879246;29;20040;-77
2023/08/03 07:03:16;;;;;;;1.50;0.82;;;20.00;69.70;;;;;;4895473;29;20029;-78
2023/08/03 07:05:43;;;;;;;1.38;0.80;;;20.00;69.70;;;;;;4896634;29;20044;-78
2023/08/03 07:08:09;;;;;;;1.23;0.88;;;20.00;69.70;;;;;;4896362;29;20118;-78
2023/08/03 07:10:36;;;;;;;1.55;0.90;;;20.00;69.70;;;;;;4908383;29;20044;-78
2023/08/03 07:13:02;;;;;;;1.58;0.80;;;20.00;69.70;;;;;;4914629;29;20040;-77
2023/08/03 07:15:33;;;;;;;1.00;0.80;;;20.00;69.80;;;;;;4892160;29;20060;-78
2023/08/03 07:18:09;;;;;;;0.80;0.80;;;20.00;69.80;;;;;;4898677;29;20060;-77
2023/08/03 07:20:35;;;;;;;1.77;0.90;;;20.00;69.80;;;;;;4882492;29;20099;-77
2023/08/03 07:23:01;;;;;;;1.30;0.93;;;20.00;69.80;;;;;;4899826;29;20486;-78
2023/08/03 07:25:27;;;;;;;1.00;0.90;;;20.00;69.90;;;;;;4881246;29;20470;-77
2023/08/03 07:27:54;;;;;;;1.00;0.80;;;20.00;69.80;;;;;;4899880;29;20040;-78
2023/08/03 07:30:20;;;;;;;1.50;0.82;;;20.00;69.80;;;;;;4891543;29;20029;-78
2023/08/03 07:32:46;;;;;;;0.93;0.85;;;20.00;69.80;;;;;;4881885;29;20389;-78
2023/08/03 07:35:12;;;;;;;2.13;0.80;;;20.00;69.90;;;;;;4913819;29;20025;-77
2023/08/03 07:37:38;;;;;;;2.75;0.80;;;20.00;69.80;;;;;;4882511;29;20048;-77
2023/08/03 07:40:04;;;;;;;2.05;0.90;;;20.00;69.90;;;;;;4882964;29;20044;-77
2023/08/03 07:42:30;;;;;;;1.75;0.80;;;20.10;69.90;;;;;;4878127;29;20513;-77
2023/08/03 07:44:56;;;;;;;0.93;0.70;;;20.00;69.90;;;;;;4880474;29;20044;-78
2023/08/03 07:47:21;;;;;;;1.42;0.88;;;20.10;69.90;;;;;;4913755;29;20029;-77
2023/08/03 07:49:47;;;;;;;1.67;0.80;;;20.10;70.00;;;;;;4882111;29;20033;-77
2023/08/03 07:52:13;;;;;;;1.40;0.85;;;20.10;70.00;;;;;;4899722;29;20031;-77
2023/08/03 07:54:39;;;;;;;1.85;0.80;;;20.10;70.00;;;;;;4889647;29;20084;-78
2023/08/03 07:57:05;;;;;;;1.00;0.80;;;20.10;70.00;;;;;;4881984;29;20032;-77
2023/08/03 07:59:31;;;;;;;0.80;0.80;;;20.10;70.00;;;;;;4899097;29;20100;-77
2023/08/03 08:01:57;;;;;;;0.60;0.60;;;20.10;70.10;;;;;;4890740;29;20036;-78
2023/08/03 08:04:22;;;;;;;2.08;0.90;;;20.10;70.10;;;;;;4875004;29;20052;-78
2023/08/03 08:06:48;;;;;;;1.15;0.80;;;20.10;70.00;;;;;;4880927;29;20064;-78
2023/08/03 08:09:14;;;;;;;1.15;0.73;;;20.10;70.00;;;;;;4880882;29;20113;-78
2023/08/03 08:11:40;;;;;;;1.13;0.88;;;20.10;70.10;;;;;;4895636;29;20033;-78
2023/08/03 08:14:05;;;;;;;1.10;0.80;;;20.10;70.10;;;;;;4893609;29;20064;-78
2023/08/03 08:16:31;;;;;;;1.65;0.80;;;20.10;70.00;;;;;;4901487;29;20100;-77
2023/08/03 08:18:57;;;;;;;1.38;0.70;;;20.10;70.10;;;;;;4876044;29;20043;-78
2023/08/03 08:21:22;;;;;;;1.27;0.90;;;20.10;70.10;;;;;;4866187;29;20079;-78
2023/08/03 08:23:48;;;;;;;1.48;0.85;;;20.10;70.10;;;;;;4895711;29;20092;-78
2023/08/03 08:26:16;;;;;;;1.08;0.80;;;20.10;70.00;;;;;;4909655;29;20486;-77
2023/08/03 08:28:44;;;;;;;0.90;0.90;;;20.10;70.10;;;;;;4893436;29;20032;-78
2023/08/03 08:31:09;;;;;;;0.70;0.70;;;20.10;70.10;;;;;;4907969;29;20033;-77
2023/08/03 08:33:36;;;;;;;1.05;0.80;;;20.10;70.10;;;;;;4909500;29;20375;-77
2023/08/03 08:36:03;;;;;;;1.23;0.90;;;20.10;70.10;;;;;;4894516;29;20036;-77
2023/08/03 08:38:30;;;;;;;1.48;0.93;;;20.10;70.10;;;;;;4878827;29;20048;-77
2023/08/03 08:40:55;;;;;;;0.85;0.80;;;20.10;70.10;;;;;;4890774;29;20080;-77
2023/08/03 08:43:21;;;;;;;1.55;0.80;;;20.10;70.20;;;;;;4881418;29;20044;-78
2023/08/03 08:45:47;;;;;;;1.30;0.85;;;20.10;70.10;;;;;;4892245;29;20538;-77
2023/08/03 08:48:13;;;;;;;1.10;0.90;;;20.10;70.10;;;;;;4911107;29;20145;-77
2023/08/03 08:50:40;;;;;;;1.48;0.98;;;20.20;70.20;;;;;;4889861;29;20403;-77
2023/08/03 08:53:06;;;;;;;1.55;1.00;;;20.20;70.10;;;;;;4889374;29;20558;-77
2023/08/03 08:55:32;;;;;;;1.92;0.80;;;20.20;70.10;;;;;;4913171;29;20120;-78
2023/08/03 08:57:58;;;;;;;2.00;0.98;;;20.20;70.20;;;;;;4896614;29;20039;-78
2023/08/03 09:00:26;;;;;;;1.58;1.00;;;20.20;70.20;;;;;;4895039;29;20040;-78
2023/08/03 09:02:56;;;;;;;1.38;0.88;;;20.20;70.20;;;;;;4896744;29;20116;-78
2023/08/03 09:05:26;;;;;;;1.40;0.90;;;20.20;70.20;;;;;;4911493;29;20107;-77
2023/08/03 09:08:06;;;;;;;1.38;0.80;;;20.20;70.20;;;;;;4896983;29;20033;-78
2023/08/03 09:10:46;;;;;;;1.10;0.88;;;20.20;70.30;;;;;;4896381;29;20021;-77
2023/08/03 09:13:25;;;;;;;1.20;0.85;;;20.20;70.20;;;;;;4892656;29;20031;-77
2023/08/03 09:15:51;;;;;;;0.70;0.70;;;20.20;70.30;;;;;;4891438;29;20040;-78
2023/08/03 09:18:16;;;;;;;1.15;0.68;;;20.30;70.20;;;;;;4889762;29;20040;-77
2023/08/03 09:20:42;;;;;;;1.23;1.00;;;20.30;70.20;;;;;;4894512;29;20095;-77
2023/08/03 09:23:08;;;;;;;1.15;0.80;;;20.30;70.20;;;;;;4896431;29;20039;-78
2023/08/03 09:25:34;;;;;;;1.67;1.08;;;20.30;70.20;;;;;;4879881;29;20036;-77
2023/08/03 09:27:59;;;;;;;0.93;0.88;;;20.30;70.20;;;;;;4865605;29;20071;-78
2023/08/03 09:30:25;;;;;;;2.10;1.00;;;20.30;70.20;;;;;;4878869;29;20064;-78
2023/08/03 09:32:51;;;;;;;1.15;0.90;;;20.40;70.20;;;;;;4876642;29;20109;-78
2023/08/03 09:35:21;;;;;;;1.45;0.88;;;20.40;70.20;;;;;;4895558;29;20474;-78
2023/08/03 09:37:48;;;;;;;1.80;1.00;;;20.40;70.20;;;;;;4893843;29;20043;-78
2023/08/03 09:40:17;;;;;;;1.40;0.88;;;20.50;70.30;;;;;;4896486;29;20390;-78
2023/08/03 09:42:44;;;;;;;0.88;0.80;;;20.50;70.20;;;;;;4880648;29;20060;-79
2023/08/03 09:45:10;;;;;;;3.45;0.98;;;20.50;70.10;;;;;;4905316;29;20020;-78
2023/08/03 09:47:36;;;;;;;0.75;0.75;;;20.50;70.10;;;;;;4896236;29;20033;-78
2023/08/03 09:50:03;;;;;;;1.08;0.95;;;20.60;70.10;;;;;;4895810;29;20115;-78
2023/08/03 09:52:30;;;;;;;1.35;0.98;;;20.60;70.00;;;;;;4897006;29;20029;-79
2023/08/03 09:55:08;;;;;;;1.23;1.13;;;20.70;70.00;;;;;;4896333;29;20044;-79
2023/08/03 09:57:47;;;;;;;1.30;0.95;;;20.70;70.10;;;;;;4888379;29;20064;-78
2023/08/03 10:00:15;;;;;;;1.67;1.15;;;20.80;70.10;;;;;;4893842;29;20070;-82
2023/08/03 10:02:48;;;;;;;1.55;1.10;;;20.80;69.90;;;;;;4911319;29;20047;-79
2023/08/03 10:05:19;;;;;;;0.85;0.80;;;20.80;69.90;;;;;;4903475;29;20470;-79
2023/08/03 10:08:16;;;;;;;0.98;0.90;;;20.90;70.00;;;;;;4892555;29;20434;-78
2023/08/03 10:10:47;;;;;;;1.55;0.90;;;20.90;70.00;;;;;;4860604;29;20045;-79
2023/08/03 10:13:14;;;;;;;0.95;0.90;;;21.00;69.90;;;;;;4889181;29;20111;-79
2023/08/03 10:15:41;;;;;;;1.10;1.00;;;21.00;69.90;;;;;;4880302;29;20430;-78
2023/08/03 10:18:07;;;;;;;1.35;1.02;;;21.10;69.90;;;;;;4880164;29;20128;-79
2023/08/03 10:20:34;;;;;;;1.58;1.00;;;21.20;69.90;;;;;;4893802;29;20045;-79
2023/08/03 10:23:17;;;;;;;1.55;1.00;;;21.20;70.50;;;;;;4895848;29;20385;-78
2023/08/03 10:26:00;;;;;;;1.25;1.00;;;21.30;70.00;;;;;;4879889;29;20442;-78
2023/08/03 10:28:27;;;;;;;1.00;0.80;;;21.30;69.80;;;;;;4895842;29;20123;-78
2023/08/03 10:31:14;;;;;;;0.77;0.77;;;21.40;69.70;;;;;;4895150;29;20060;-78
2023/08/03 10:33:46;;;;;;;1.60;1.00;;;21.50;69.80;;;;;;4895482;29;20032;-79
2023/08/03 10:36:38;;;;;;;1.42;1.17;;;21.50;69.60;;;;;;4895528;29;20033;-79
2023/08/03 10:39:07;;;;;;;1.17;0.98;;;21.70;69.70;;;;;;4901774;29;20037;-78
2023/08/03 10:41:37;;;;;;;1.35;0.90;;;21.70;69.40;;;;;;4874643;29;20454;-78
2023/08/03 10:44:05;;;;;;;1.48;1.00;;;21.80;69.40;;;;;;4879367;29;20039;-79
2023/08/03 10:46:42;;;;;;;0.90;0.90;;;21.90;69.40;;;;;;4890888;29;20084;-79
2023/08/03 10:49:23;;;;;;;0.88;0.88;;;22.00;69.40;;;;;;4894326;29;20032;-82
2023/08/03 10:51:51;;;;;;;1.08;0.98;;;22.10;69.40;;;;;;4895815;29;20061;-82
2023/08/03 10:54:19;;;;;;;0.70;0.70;;;22.10;69.10;;;;;;4909208;29;20390;-79
2023/08/03 10:57:07;;;;;;;1.40;0.93;;;22.20;69.00;;;;;;4895957;29;20036;-82
2023/08/03 10:59:43;;;;;;;0.93;0.85;;;22.30;69.00;;;;;;4894472;29;20025;-82
2023/08/03 11:02:18;;;;;;;1.13;0.90;;;22.30;68.70;;;;;;4911355;29;20060;-82
2023/08/03 11:04:45;;;;;;;1.05;0.75;;;22.40;68.70;;;;;;4895255;29;20029;-83
2023/08/03 11:07:24;;;;;;;0.90;0.80;;;22.40;68.60;;;;;;4886645;29;20482;-82
2023/08/03 11:09:54;;;;;;;1.48;1.10;;;22.40;68.60;;;;;;4895234;29;20040;-82
2023/08/03 11:12:22;;;;;;;1.90;0.90;;;22.40;68.60;;;;;;4879424;29;20032;-83
2023/08/03 11:14:54;;;;;;;1.77;1.02;;;22.50;68.70;;;;;;4906392;29;20033;-80
2023/08/03 11:17:25;;;;;;;1.98;1.00;;;22.40;68.60;;;;;;4893480;29;20040;-81
2023/08/03 11:19:52;;;;;;;1.25;1.10;;;22.50;69.30;;;;;;4895490;29;20024;-81
2023/08/03 11:22:21;;;;;;;1.15;1.00;;;22.50;68.70;;;;;;4893895;29;20028;-81
2023/08/03 11:24:51;;;;;;;0.80;0.80;;;22.50;68.70;;;;;;4889143;29;20028;-77
2023/08/03 11:27:18;;;;;;;0.85;0.80;;;22.50;68.70;;;;;;4890301;29;20124;-79
2023/08/03 11:29:44;;;;;;;1.08;0.70;;;22.50;68.70;;;;;;4910168;29;20504;-78
2023/08/03 11:32:11;;;;;;;0.75;0.73;;;22.50;68.70;;;;;;4877352;29;20111;-78
2023/08/03 11:34:40;;;;;;;1.48;0.80;;;22.50;68.70;;;;;;4893160;29;20066;-78
2023/08/03 11:37:07;;;;;;;1.27;0.90;;;22.50;68.70;;;;;;4887015;29;20040;-82
2023/08/03 11:39:33;;;;;;;0.88;0.80;;;22.60;68.80;;;;;;4892695;29;20028;-83
2023/08/03 11:42:00;;;;;;;0.60;0.60;;;22.50;68.70;;;;;;4904642;29;20100;-81
2023/08/03 11:44:25;;;;;;;1.15;0.80;;;22.60;69.50;;;;;;4891544;29;20024;-84
2023/08/03 11:47:21;;;;;;;1.33;1.02;;;22.60;68.80;;;;;;4880154;29;20080;-82
2023/08/03 11:49:48;;;;;;;1.70;0.93;;;22.60;68.90;;;;;;4899249;29;20490;-82
2023/08/03 11:52:18;;;;;;;2.03;1.15;;;22.60;68.80;;;;;;4895109;29;20067;-83
2023/08/03 11:54:44;;;;;;;1.65;0.85;;;22.60;68.90;;;;;;4873983;29;20037;-83
2023/08/03 11:59:54;;;;;;;0.85;0.85;;;22.50;68.90;;;;;;4896804;29;20041;-81
2023/08/03 12:02:38;;;;;;;1.20;1.05;;;22.60;68.90;;;;;;4904563;29;20047;-78
2023/08/03 12:05:06;;;;;;;2.05;1.10;;;22.50;69.00;;;;;;4897655;29;20049;-78
2023/08/03 12:07:32;;;;;;;1.17;0.90;;;22.60;68.90;;;;;;4897321;29;20024;-79
2023/08/03 12:09:58;;;;;;;2.00;1.25;;;22.50;69.00;;;;;;4894487;29;20052;-79
2023/08/03 12:12:24;;;;;;;1.17;0.88;;;22.60;69.00;;;;;;4881293;29;20115;-78
2023/08/03 12:14:50;;;;;;;2.05;0.90;;;22.60;69.00;;;;;;4866528;29;20056;-78
2023/08/03 12:17:16;;;;;;;1.05;0.80;;;22.50;69.00;;;;;;4895564;29;20435;-78
2023/08/03 12:19:42;;;;;;;1.55;0.98;;;22.60;69.10;;;;;;4913152;29;20478;-79
2023/08/03 12:22:07;;;;;;;0.77;0.77;;;22.50;69.00;;;;;;4881642;29;20128;-79
2023/08/03 12:24:33;;;;;;;1.02;0.80;;;22.60;69.10;;;;;;4913403;29;20095;-78
2023/08/03 12:27:01;;;;;;;1.38;0.75;;;22.50;69.00;;;;;;4896604;29;20522;-79
2023/08/03 12:29:27;;;;;;;1.75;0.95;;;22.50;69.10;;;;;;4896780;29;20040;-78
2023/08/03 12:31:53;;;;;;;0.80;0.80;;;22.60;69.10;;;;;;4881236;29;20029;-77
2023/08/03 12:34:18;;;;;;;1.60;0.90;;;22.50;69.10;;;;;;4866571;29;20040;-76
2023/08/03 12:36:44;;;;;;;1.20;1.10;;;22.60;69.20;;;;;;4881349;29;20422;-78
2023/08/03 12:39:10;;;;;;;1.38;1.00;;;22.50;69.10;;;;;;4913325;29;20040;-78
2023/08/03 12:41:36;;;;;;;1.20;0.88;;;22.50;69.20;;;;;;4898629;29;20063;-79
2023/08/03 12:44:01;;;;;;;0.85;0.80;;;22.60;69.20;;;;;;4893076;29;20036;-82
2023/08/03 12:46:27;;;;;;;1.52;0.77;;;22.50;69.20;;;;;;4897636;29;20037;-81
2023/08/03 12:48:53;;;;;;;1.42;0.80;;;22.60;69.20;;;;;;4896152;29;20036;-82
2023/08/03 12:51:19;;;;;;;0.77;0.77;;;22.50;69.20;;;;;;4882226;29;20032;-82
2023/08/03 12:53:49;;;;;;;1.10;0.80;;;22.50;69.60;;;;;;4897334;29;20037;-84